| time (UTC) | temp C | wind direction | speed KPH | gust KPH | rain 1hr cm | rain 24hr cm | rain mn cm | humidity % | barometer mb |
| 20260505031516 | 18 | 158 | 1.6 | 6.4 | 0.00 | 0.00 | 0.00 | 48 | 1015.0 |
| 20260505030516 | 18 | 158 | 1.6 | 6.4 | 0.00 | 0.00 | 0.00 | 47 | 1015.1 |
| 20260505025516 | 18 | 158 | 1.6 | 8.0 | 0.00 | 0.00 | 0.00 | 47 | 1015.0 |
| 20260505024515 | 18 | 158 | 1.6 | 6.4 | 0.00 | 0.00 | 0.00 | 47 | 1015.0 |
| 20260505023516 | 18 | 90 | 1.6 | 9.7 | 0.00 | 0.00 | 0.00 | 47 | 1014.9 |
| 20260505022515 | 18 | 0.0 | 1.6 | 0.00 | 0.00 | 0.00 | 47 | 1014.8 | |
| 20260505021516 | 18 | 0.0 | 6.4 | 0.00 | 0.00 | 0.00 | 46 | 1014.8 | |
| 20260505020515 | 19 | 0.0 | 4.8 | 0.00 | 0.00 | 0.00 | 46 | 1014.6 | |
| 20260505015515 | 19 | 0.0 | 6.4 | 0.00 | 0.00 | 0.00 | 45 | 1014.5 | |
| 20260505014517 | 19 | 0.0 | 1.6 | 0.00 | 0.00 | 0.00 | 45 | 1014.5 | |
| 20260505013517 | 20 | 0.0 | 1.6 | 0.00 | 0.00 | 0.00 | 44 | 1014.4 | |
| 20260505012518 | 20 | 0.0 | 1.6 | 0.00 | 0.00 | 0.00 | 43 | 1014.3 | |
| 20260505011517 | 20 | 158 | 1.6 | 3.2 | 0.00 | 0.00 | 0.00 | 42 | 1014.3 |
| 20260505010517 | 21 | 0.0 | 1.6 | 0.00 | 0.00 | 0.00 | 41 | 1014.1 | |
| 20260505005518 | 21 | 158 | 1.6 | 3.2 | 0.00 | 0.00 | 0.00 | 40 | 1013.9 |
| 20260505004517 | 21 | 0.0 | 3.2 | 0.00 | 0.00 | 0.00 | 40 | 1013.8 | |
| 20260505003517 | 21 | 158 | 1.6 | 8.0 | 0.00 | 0.00 | 0.00 | 38 | 1013.5 |
| 20260505002517 | 22 | 0.0 | 1.6 | 0.00 | 0.00 | 0.00 | 39 | 1013.5 | |
| 20260505001517 | 22 | 158 | 1.6 | 8.0 | 0.00 | 0.00 | 0.00 | 37 | 1013.5 |
| 20260505000517 | 22 | 0.0 | 4.8 | 0.00 | 0.00 | 0.00 | 37 | 1013.3 | |
| 20260504235517 | 23 | 158 | 1.6 | 6.4 | 0.00 | 0.00 | 0.00 | 35 | 1013.2 |
| 20260504234517 | 23 | 180 | 1.6 | 11.3 | 0.00 | 0.00 | 0.00 | 35 | 1013.1 |
| 20260504233517 | 23 | 135 | 1.6 | 11.3 | 0.00 | 0.00 | 0.00 | 33 | 1013.0 |
| 20260504232517 | 23 | 158 | 1.6 | 9.7 | 0.00 | 0.00 | 0.00 | 33 | 1012.9 |
| 20260504231517 | 23 | 158 | 3.2 | 11.3 | 0.00 | 0.00 | 0.00 | 33 | 1012.9 |
| 20260504230517 | 23 | 158 | 1.6 | 8.0 | 0.00 | 0.00 | 0.00 | 34 | 1012.8 |
| 20260504225517 | 24 | 158 | 1.6 | 8.0 | 0.00 | 0.00 | 0.00 | 33 | 1012.8 |
| 20260504224517 | 24 | 158 | 1.6 | 8.0 | 0.00 | 0.00 | 0.00 | 32 | 1012.8 |
| 20260504223517 | 24 | 158 | 4.8 | 9.7 | 0.00 | 0.00 | 0.00 | 32 | 1012.9 |
| 20260504222517 | 24 | 158 | 1.6 | 9.7 | 0.00 | 0.00 | 0.00 | 32 | 1012.9 |
| 20260504221517 | 25 | 158 | 4.8 | 11.3 | 0.00 | 0.00 | 0.00 | 32 | 1012.9 |
| 20260504220517 | 25 | 158 | 6.4 | 14.5 | 0.00 | 0.00 | 0.00 | 31 | 1012.9 |
| 20260504215517 | 25 | 158 | 3.2 | 9.7 | 0.00 | 0.00 | 0.00 | 31 | 1013.0 |
| 20260504214517 | 25 | 158 | 3.2 | 9.7 | 0.00 | 0.00 | 0.00 | 34 | 1013.1 |
| 20260504213517 | 25 | 158 | 4.8 | 9.7 | 0.00 | 0.00 | 0.00 | 33 | 1013.0 |
| 20260504212517 | 25 | 158 | 4.8 | 9.7 | 0.00 | 0.00 | 0.00 | 32 | 1013.1 |
| 20260504211517 | 25 | 158 | 6.4 | 16.1 | 0.00 | 0.00 | 0.00 | 31 | 1013.1 |
| 20260504210517 | 25 | 158 | 6.4 | 14.5 | 0.00 | 0.00 | 0.00 | 32 | 1013.2 |
| 20260504205517 | 25 | 158 | 4.8 | 11.3 | 0.00 | 0.00 | 0.00 | 31 | 1013.3 |
| 20260504204517 | 25 | 158 | 3.2 | 9.7 | 0.00 | 0.00 | 0.00 | 31 | 1013.5 |
| 20260504203517 | 25 | 158 | 4.8 | 12.9 | 0.00 | 0.00 | 0.00 | 32 | 1013.6 |
| 20260504202517 | 25 | 158 | 4.8 | 14.5 | 0.00 | 0.00 | 0.00 | 34 | 1013.7 |
| 20260504201517 | 24 | 158 | 1.6 | 8.0 | 0.00 | 0.00 | 0.00 | 33 | 1013.9 |
| 20260504200517 | 24 | 158 | 1.6 | 8.0 | 0.00 | 0.00 | 0.00 | 33 | 1014.0 |
| 20260504195517 | 24 | 158 | 1.6 | 8.0 | 0.00 | 0.00 | 0.00 | 34 | 1014.0 |
| 20260504194517 | 25 | 135 | 3.2 | 9.7 | 0.00 | 0.00 | 0.00 | 36 | 1014.2 |
| 20260504193517 | 25 | 158 | 4.8 | 12.9 | 0.00 | 0.00 | 0.00 | 36 | 1014.3 |
| 20260504192517 | 25 | 135 | 1.6 | 8.0 | 0.00 | 0.00 | 0.00 | 40 | 1014.3 |
| 20260504191517 | 25 | 158 | 3.2 | 8.0 | 0.00 | 0.00 | 0.00 | 39 | 1014.5 |
| 20260504190517 | 25 | 158 | 4.8 | 11.3 | 0.00 | 0.00 | 0.00 | 41 | 1014.6 |
| 20260504185517 | 25 | 158 | 3.2 | 9.7 | 0.00 | 0.00 | 0.00 | 38 | 1014.7 |
| 20260504184517 | 25 | 180 | 4.8 | 9.7 | 0.00 | 0.00 | 0.00 | 37 | 1014.7 |
| 20260504183517 | 25 | 180 | 3.2 | 8.0 | 0.00 | 0.00 | 0.00 | 34 | 1014.8 |
| 20260504182517 | 25 | 135 | 3.2 | 8.0 | 0.00 | 0.00 | 0.00 | 36 | 1015.0 |
| 20260504181517 | 25 | 158 | 3.2 | 9.7 | 0.00 | 0.00 | 0.00 | 37 | 1015.2 |
| 20260504180517 | 24 | 158 | 3.2 | 6.4 | 0.00 | 0.00 | 0.00 | 38 | 1015.3 |
| 20260504175517 | 24 | 0 | 3.2 | 8.0 | 0.00 | 0.00 | 0.00 | 38 | 1015.4 |
| 20260504174517 | 25 | 158 | 4.8 | 8.0 | 0.00 | 0.00 | 0.00 | 39 | 1015.6 |
| 20260504173517 | 25 | 23 | 3.2 | 6.4 | 0.00 | 0.00 | 0.00 | 37 | 1015.7 |
| 20260504172517 | 24 | 23 | 3.2 | 9.7 | 0.00 | 0.00 | 0.00 | 33 | 1015.7 |
| 20260504171517 | 23 | 23 | 3.2 | 11.3 | 0.00 | 0.00 | 0.00 | 32 | 1015.8 |
| 20260504170517 | 23 | 135 | 3.2 | 8.0 | 0.00 | 0.00 | 0.00 | 35 | 1015.8 |
| 20260504150516 | 21 | 135 | 1.6 | 8.0 | 0.00 | 0.00 | 0.00 | 44 | 1017.3 |
| 20260504140516 | 19 | 90 | 1.6 | 3.2 | 0.00 | 0.00 | 0.00 | 56 | 1017.4 |
| 20260504130516 | 17 | 23 | 1.6 | 3.2 | 0.00 | 0.00 | 0.00 | 60 | 1017.3 |
| 20260504110516 | 7 | 0.0 | 0.0 | 0.00 | 0.00 | 0.00 | 83 | 1016.8 | |
| 20260504100516 | 7 | 0.0 | 0.0 | 0.00 | 0.00 | 0.00 | 79 | 1016.3 | |
| 20260504081516 | 10 | 0.0 | 3.2 | 0.00 | 0.00 | 0.00 | 69 | 1016.0 | |
| 20260504080515 | 11 | 0.0 | 1.6 | 0.00 | 0.00 | 0.00 | 69 | 1015.9 | |
| 20260504050517 | 12 | 0.0 | 1.6 | 0.00 | 0.00 | 0.00 | 66 | 1016.3 | |
| 20260504045517 | 12 | 0.0 | 1.6 | 0.00 | 0.00 | 0.00 | 66 | 1016.5 | |
| 20260504044517 | 12 | 0.0 | 1.6 | 0.00 | 0.00 | 0.00 | 67 | 1016.4 | |
| 20260504043517 | 12 | 0.0 | 1.6 | 0.00 | 0.00 | 0.00 | 67 | 1016.6 | |
| 20260504042517 | 12 | 0.0 | 1.6 | 0.00 | 0.00 | 0.00 | 66 | 1016.6 | |
| 20260504041517 | 12 | 0.0 | 1.6 | 0.00 | 0.00 | 0.00 | 66 | 1016.8 | |
| 20260504040517 | 12 | 0.0 | 0.0 | 0.00 | 0.00 | 0.00 | 65 | 1016.9 | |
| 20260504035516 | 12 | 0.0 | 0.0 | 0.00 | 0.00 | 0.00 | 64 | 1016.9 | |
| 20260504034516 | 13 | 0.0 | 0.0 | 0.00 | 0.00 | 0.00 | 63 | 1016.8 | |
| 20260504033516 | 13 | 0.0 | 0.0 | 0.00 | 0.00 | 0.00 | 63 | 1017.0 | |
| 20260504032516 | 13 | 0.0 | 0.0 | 0.00 | 0.00 | 0.00 | 62 | 1017.0 |